sensor_id;sensor_type;location;lat;lon;timestamp;pressure;altitude;pressure_sealevel;temperature;humidity
62697;BME280;48761;42.680;23.312;2023-03-26T00:15:14;94306.06;;;11.18;63.91
62697;BME280;48761;42.680;23.312;2023-03-26T00:17:53;94343.41;;;11.28;64.31
62697;BME280;48761;42.680;23.312;2023-03-26T00:20:31;94350.69;;;11.59;63.57
62697;BME280;48761;42.680;23.312;2023-03-26T00:22:57;94288.09;;;11.43;63.39
62697;BME280;48761;42.680;23.312;2023-03-26T00:25:23;94337.91;;;11.85;63.03
62697;BME280;48761;42.680;23.312;2023-03-26T00:27:49;94306.97;;;11.94;62.36
62697;BME280;48761;42.680;23.312;2023-03-26T00:30:15;94331.00;;;12.16;61.67
62697;BME280;48761;42.680;23.312;2023-03-26T00:32:43;94329.34;;;12.25;61.71
62697;BME280;48761;42.680;23.312;2023-03-26T00:35:09;94327.41;;;12.27;61.21
62697;BME280;48761;42.680;23.312;2023-03-26T00:37:35;94334.88;;;12.33;61.30
62697;BME280;48761;42.680;23.312;2023-03-26T00:40:01;94341.25;;;12.20;61.07
62697;BME280;48761;42.680;23.312;2023-03-26T00:42:28;94336.69;;;12.32;61.01
62697;BME280;48761;42.680;23.312;2023-03-26T00:44:54;94329.72;;;12.41;60.60
62697;BME280;48761;42.680;23.312;2023-03-26T00:47:20;94312.09;;;12.07;61.00
62697;BME280;48761;42.680;23.312;2023-03-26T00:49:46;94316.81;;;12.15;60.58
62697;BME280;48761;42.680;23.312;2023-03-26T00:52:12;94320.75;;;11.99;60.83
62697;BME280;48761;42.680;23.312;2023-03-26T00:54:38;94323.31;;;12.23;60.49
62697;BME280;48761;42.680;23.312;2023-03-26T00:57:04;94343.13;;;12.30;60.49
62697;BME280;48761;42.680;23.312;2023-03-26T00:59:37;94298.66;;;12.09;59.78
62697;BME280;48761;42.680;23.312;2023-03-26T01:02:03;94279.84;;;12.01;59.85
62697;BME280;48761;42.680;23.312;2023-03-26T01:04:33;94311.66;;;12.24;59.34
62697;BME280;48761;42.680;23.312;2023-03-26T01:07:02;94309.31;;;12.09;58.97
62697;BME280;48761;42.680;23.312;2023-03-26T01:09:35;94328.19;;;12.17;59.62
62697;BME280;48761;42.680;23.312;2023-03-26T01:12:05;94328.66;;;12.11;59.72
62697;BME280;48761;42.680;23.312;2023-03-26T01:14:31;94317.38;;;11.97;59.87
62697;BME280;48761;42.680;23.312;2023-03-26T01:17:00;94313.84;;;11.97;60.08
62697;BME280;48761;42.680;23.312;2023-03-26T01:22:16;94345.97;;;11.95;60.84
62697;BME280;48761;42.680;23.312;2023-03-26T01:24:43;94342.72;;;11.59;61.81
62697;BME280;48761;42.680;23.312;2023-03-26T01:27:22;94346.22;;;11.59;61.82
62697;BME280;48761;42.680;23.312;2023-03-26T01:30:11;94351.63;;;11.69;61.86
62697;BME280;48761;42.680;23.312;2023-03-26T01:41:19;94354.28;;;11.36;62.85
62697;BME280;48761;42.680;23.312;2023-03-26T01:46:19;94341.91;;;11.80;61.96
62697;BME280;48761;42.680;23.312;2023-03-26T01:48:47;94364.41;;;11.87;61.59
62697;BME280;48761;42.680;23.312;2023-03-26T01:51:25;94366.75;;;11.69;61.86
62697;BME280;48761;42.680;23.312;2023-03-26T01:53:52;94369.56;;;11.67;62.60
62697;BME280;48761;42.680;23.312;2023-03-26T02:07:16;94357.25;;;11.87;62.92
62697;BME280;48761;42.680;23.312;2023-03-26T02:09:49;94358.81;;;11.90;62.73
62697;BME280;48761;42.680;23.312;2023-03-26T02:12:16;94338.22;;;11.26;64.53
62697;BME280;48761;42.680;23.312;2023-03-26T02:14:44;94359.38;;;11.72;63.80
62697;BME280;48761;42.680;23.312;2023-03-26T02:17:10;94358.13;;;11.76;63.53
62697;BME280;48761;42.680;23.312;2023-03-26T02:19:37;94353.41;;;11.36;64.45
62697;BME280;48761;42.680;23.312;2023-03-26T02:22:03;94367.84;;;11.66;64.19
62697;BME280;48761;42.680;23.312;2023-03-26T02:24:29;94362.13;;;11.38;64.74
62697;BME280;48761;42.680;23.312;2023-03-26T02:26:55;94359.59;;;11.36;64.76
62697;BME280;48761;42.680;23.312;2023-03-26T02:29:21;94361.09;;;11.62;63.90
62697;BME280;48761;42.680;23.312;2023-03-26T02:31:47;94365.69;;;11.15;65.12
62697;BME280;48761;42.680;23.312;2023-03-26T02:34:14;94363.09;;;11.37;64.70
62697;BME280;48761;42.680;23.312;2023-03-26T02:36:40;94365.72;;;11.48;64.62
62697;BME280;48761;42.680;23.312;2023-03-26T02:39:06;94343.31;;;11.18;64.38
62697;BME280;48761;42.680;23.312;2023-03-26T02:41:32;94372.81;;;11.26;65.20
62697;BME280;48761;42.680;23.312;2023-03-26T02:43:58;94374.03;;;11.10;65.44
62697;BME280;48761;42.680;23.312;2023-03-26T02:46:24;94361.56;;;11.23;64.52
62697;BME280;48761;42.680;23.312;2023-03-26T02:48:50;94392.91;;;11.19;65.34
62697;BME280;48761;42.680;23.312;2023-03-26T02:51:16;94382.03;;;10.99;65.90
62697;BME280;48761;42.680;23.312;2023-03-26T02:53:42;94391.94;;;10.85;66.80
62697;BME280;48761;42.680;23.312;2023-03-26T02:56:08;94398.81;;;11.11;66.18
62697;BME280;48761;42.680;23.312;2023-03-26T02:58:34;94407.66;;;11.12;66.02
62697;BME280;48761;42.680;23.312;2023-03-26T03:01:00;94387.81;;;11.16;65.49
62697;BME280;48761;42.680;23.312;2023-03-26T03:03:26;94412.13;;;11.11;65.71
62697;BME280;48761;42.680;23.312;2023-03-26T03:05:53;94402.56;;;10.85;66.34
62697;BME280;48761;42.680;23.312;2023-03-26T03:08:21;94356.53;;;10.62;65.97
62697;BME280;48761;42.680;23.312;2023-03-26T03:11:03;94396.06;;;10.78;65.93
62697;BME280;48761;42.680;23.312;2023-03-26T03:13:31;94404.41;;;10.96;65.43
62697;BME280;48761;42.680;23.312;2023-03-26T03:15:57;94412.00;;;10.90;65.62
62697;BME280;48761;42.680;23.312;2023-03-26T03:18:23;94403.91;;;10.68;66.03
62697;BME280;48761;42.680;23.312;2023-03-26T03:20:49;94400.75;;;10.86;66.07
62697;BME280;48761;42.680;23.312;2023-03-26T03:23:15;94398.94;;;10.63;65.95
62697;BME280;48761;42.680;23.312;2023-03-26T03:25:41;94410.72;;;10.36;67.07
62697;BME280;48761;42.680;23.312;2023-03-26T03:28:08;94407.56;;;10.42;66.85
62697;BME280;48761;42.680;23.312;2023-03-26T03:30:34;94409.94;;;10.11;67.86
62697;BME280;48761;42.680;23.312;2023-03-26T03:33:01;94416.69;;;10.15;67.86
62697;BME280;48761;42.680;23.312;2023-03-26T03:35:28;94409.44;;;10.06;67.99
62697;BME280;48761;42.680;23.312;2023-03-26T03:37:57;94392.72;;;10.04;68.21
62697;BME280;48761;42.680;23.312;2023-03-26T03:40:23;94411.81;;;10.09;68.37
62697;BME280;48761;42.680;23.312;2023-03-26T03:42:49;94392.22;;;9.87;68.81
62697;BME280;48761;42.680;23.312;2023-03-26T03:45:15;94377.84;;;9.78;69.05
62697;BME280;48761;42.680;23.312;2023-03-26T03:47:41;94382.47;;;9.63;70.29
62697;BME280;48761;42.680;23.312;2023-03-26T03:50:21;94326.34;;;9.32;69.75
62697;BME280;48761;42.680;23.312;2023-03-26T03:53:08;94329.28;;;9.40;69.62
62697;BME280;48761;42.680;23.312;2023-03-26T03:55:40;94339.66;;;9.43;69.54
62697;BME280;48761;42.680;23.312;2023-03-26T03:58:06;94400.97;;;9.76;69.96
62697;BME280;48761;42.680;23.312;2023-03-26T04:00:32;94360.72;;;9.58;69.46
62697;BME280;48761;42.680;23.312;2023-03-26T04:02:58;94407.06;;;9.90;69.03
62697;BME280;48761;42.680;23.312;2023-03-26T04:05:26;94359.56;;;9.73;68.38
62697;BME280;48761;42.680;23.312;2023-03-26T04:08:01;94343.97;;;9.93;67.85
62697;BME280;48761;42.680;23.312;2023-03-26T04:10:35;94362.69;;;10.03;67.50
62697;BME280;48761;42.680;23.312;2023-03-26T04:13:00;94430.03;;;10.50;67.28
62697;BME280;48761;42.680;23.312;2023-03-26T04:15:26;94440.91;;;10.47;67.43
62697;BME280;48761;42.680;23.312;2023-03-26T04:17:52;94439.53;;;10.65;66.83
62697;BME280;48761;42.680;23.312;2023-03-26T04:20:18;94435.66;;;10.70;66.57
62697;BME280;48761;42.680;23.312;2023-03-26T04:22:44;94457.31;;;10.88;65.81
62697;BME280;48761;42.680;23.312;2023-03-26T04:25:11;94467.59;;;10.93;65.62
62697;BME280;48761;42.680;23.312;2023-03-26T04:27:38;94447.50;;;10.77;65.76
62697;BME280;48761;42.680;23.312;2023-03-26T04:30:06;94456.69;;;10.73;66.15
62697;BME280;48761;42.680;23.312;2023-03-26T04:32:32;94481.94;;;10.67;66.32
62697;BME280;48761;42.680;23.312;2023-03-26T04:35:02;94477.56;;;10.54;66.35
62697;BME280;48761;42.680;23.312;2023-03-26T04:37:32;94477.09;;;10.61;66.44
62697;BME280;48761;42.680;23.312;2023-03-26T04:40:00;94489.31;;;10.63;66.52
62697;BME280;48761;42.680;23.312;2023-03-26T04:42:26;94458.84;;;10.56;66.06
62697;BME280;48761;42.680;23.312;2023-03-26T04:44:52;94499.28;;;10.84;65.39
62697;BME280;48761;42.680;23.312;2023-03-26T04:47:18;94508.78;;;10.64;66.04
62697;BME280;48761;42.680;23.312;2023-03-26T04:49:45;94474.91;;;10.18;66.40
62697;BME280;48761;42.680;23.312;2023-03-26T04:52:11;94489.53;;;10.60;65.75
62697;BME280;48761;42.680;23.312;2023-03-26T04:54:38;94510.09;;;10.70;65.57
62697;BME280;48761;42.680;23.312;2023-03-26T04:57:09;94503.78;;;10.59;65.13
62697;BME280;48761;42.680;23.312;2023-03-26T04:59:36;94526.81;;;10.72;65.17
62697;BME280;48761;42.680;23.312;2023-03-26T05:02:05;94517.88;;;10.84;64.49
62697;BME280;48761;42.680;23.312;2023-03-26T05:04:31;94509.81;;;11.09;63.53
62697;BME280;48761;42.680;23.312;2023-03-26T05:06:57;94509.94;;;11.42;62.17
62697;BME280;48761;42.680;23.312;2023-03-26T05:09:26;94504.03;;;12.17;61.40
62697;BME280;48761;42.680;23.312;2023-03-26T05:11:52;94514.66;;;12.83;59.79
62697;BME280;48761;42.680;23.312;2023-03-26T05:14:18;94529.59;;;12.53;58.23
62697;BME280;48761;42.680;23.312;2023-03-26T05:16:46;94529.19;;;13.53;56.09
62697;BME280;48761;42.680;23.312;2023-03-26T05:19:13;94529.72;;;13.16;55.29
62697;BME280;48761;42.680;23.312;2023-03-26T05:21:39;94537.81;;;13.04;55.87
62697;BME280;48761;42.680;23.312;2023-03-26T05:24:05;94534.91;;;13.70;55.31
62697;BME280;48761;42.680;23.312;2023-03-26T05:26:32;94519.72;;;12.86;56.04
62697;BME280;48761;42.680;23.312;2023-03-26T05:29:02;94513.28;;;12.89;57.01
62697;BME280;48761;42.680;23.312;2023-03-26T05:31:28;94541.31;;;13.26;56.93
62697;BME280;48761;42.680;23.312;2023-03-26T05:33:54;94514.25;;;13.09;56.49
62697;BME280;48761;42.680;23.312;2023-03-26T05:36:20;94544.00;;;13.58;56.36
62697;BME280;48761;42.680;23.312;2023-03-26T05:38:46;94540.53;;;13.14;56.95
62697;BME280;48761;42.680;23.312;2023-03-26T05:41:12;94545.47;;;13.19;56.48
62697;BME280;48761;42.680;23.312;2023-03-26T05:43:38;94513.47;;;13.19;56.74
62697;BME280;48761;42.680;23.312;2023-03-26T05:46:04;94534.75;;;13.62;55.92
62697;BME280;48761;42.680;23.312;2023-03-26T05:48:31;94542.41;;;13.76;55.48
62697;BME280;48761;42.680;23.312;2023-03-26T05:50:57;94525.91;;;14.03;54.75
62697;BME280;48761;42.680;23.312;2023-03-26T05:53:25;94550.34;;;13.98;53.88
62697;BME280;48761;42.680;23.312;2023-03-26T05:55:51;94552.97;;;14.59;53.05
62697;BME280;48761;42.680;23.312;2023-03-26T05:58:17;94540.59;;;14.58;51.93
62697;BME280;48761;42.680;23.312;2023-03-26T06:00:43;94552.31;;;14.06;53.12
62697;BME280;48761;42.680;23.312;2023-03-26T06:03:10;94544.47;;;14.14;52.36
62697;BME280;48761;42.680;23.312;2023-03-26T06:05:38;94527.72;;;14.12;51.98
62697;BME280;48761;42.680;23.312;2023-03-26T06:08:05;94518.34;;;14.28;52.12
62697;BME280;48761;42.680;23.312;2023-03-26T06:10:31;94520.31;;;14.45;50.95
62697;BME280;48761;42.680;23.312;2023-03-26T06:12:57;94540.50;;;13.98;51.69
62697;BME280;48761;42.680;23.312;2023-03-26T06:15:23;94531.44;;;14.81;50.18
62697;BME280;48761;42.680;23.312;2023-03-26T06:17:49;94515.19;;;15.12;49.54
62697;BME280;48761;42.680;23.312;2023-03-26T06:20:15;94508.47;;;14.78;49.16
62697;BME280;48761;42.680;23.312;2023-03-26T06:22:41;94540.56;;;14.28;49.89
62697;BME280;48761;42.680;23.312;2023-03-26T06:25:08;94530.88;;;14.67;49.53
62697;BME280;48761;42.680;23.312;2023-03-26T06:27:34;94479.22;;;14.86;48.90
62697;BME280;48761;42.680;23.312;2023-03-26T06:30:00;94534.84;;;16.17;47.15
62697;BME280;48761;42.680;23.312;2023-03-26T06:32:26;94484.44;;;16.39;45.86
62697;BME280;48761;42.680;23.312;2023-03-26T06:34:52;94523.19;;;17.00;44.73
62697;BME280;48761;42.680;23.312;2023-03-26T06:37:18;94503.06;;;16.59;44.65
62697;BME280;48761;42.680;23.312;2023-03-26T06:39:44;94529.22;;;16.94;44.30
62697;BME280;48761;42.680;23.312;2023-03-26T06:42:10;94533.59;;;16.58;44.42
62697;BME280;48761;42.680;23.312;2023-03-26T06:44:37;94529.66;;;16.34;44.78
62697;BME280;48761;42.680;23.312;2023-03-26T06:47:03;94516.34;;;15.86;45.86
62697;BME280;48761;42.680;23.312;2023-03-26T06:49:30;94503.69;;;14.82;47.26
62697;BME280;48761;42.680;23.312;2023-03-26T06:51:56;94481.34;;;15.97;45.30
62697;BME280;48761;42.680;23.312;2023-03-26T06:54:22;94553.81;;;16.89;43.14
62697;BME280;48761;42.680;23.312;2023-03-26T06:56:51;94503.31;;;16.47;43.99
62697;BME280;48761;42.680;23.312;2023-03-26T06:59:17;94540.41;;;15.29;45.82
62697;BME280;48761;42.680;23.312;2023-03-26T07:01:44;94557.72;;;15.73;45.77
62697;BME280;48761;42.680;23.312;2023-03-26T07:04:10;94523.63;;;15.65;45.36
62697;BME280;48761;42.680;23.312;2023-03-26T07:06:38;94533.44;;;16.13;44.69
62697;BME280;48761;42.680;23.312;2023-03-26T07:09:04;94555.81;;;16.68;43.33
62697;BME280;48761;42.680;23.312;2023-03-26T07:11:30;94554.81;;;16.69;43.16
62697;BME280;48761;42.680;23.312;2023-03-26T07:13:56;94561.41;;;16.00;44.72
62697;BME280;48761;42.680;23.312;2023-03-26T07:16:22;94538.25;;;15.81;44.98
62697;BME280;48761;42.680;23.312;2023-03-26T07:18:48;94551.19;;;15.86;44.87
62697;BME280;48761;42.680;23.312;2023-03-26T07:21:14;94554.00;;;17.32;43.38
62697;BME280;48761;42.680;23.312;2023-03-26T07:23:40;94544.91;;;17.25;42.07
62697;BME280;48761;42.680;23.312;2023-03-26T07:26:28;94552.97;;;17.25;41.96
62697;BME280;48761;42.680;23.312;2023-03-26T07:29:12;94541.44;;;17.14;41.92
62697;BME280;48761;42.680;23.312;2023-03-26T07:31:56;94544.38;;;16.30;43.07
62697;BME280;48761;42.680;23.312;2023-03-26T07:35:04;94538.38;;;17.09;42.48
62697;BME280;48761;42.680;23.312;2023-03-26T07:47:59;94535.94;;;18.13;40.24
62697;BME280;48761;42.680;23.312;2023-03-26T07:50:25;94501.94;;;18.47;38.59
62697;BME280;48761;42.680;23.312;2023-03-26T07:52:51;94506.66;;;18.45;37.88
62697;BME280;48761;42.680;23.312;2023-03-26T07:55:18;94530.03;;;18.01;38.23
62697;BME280;48761;42.680;23.312;2023-03-26T08:00:39;94515.63;;;16.95;40.20
62697;BME280;48761;42.680;23.312;2023-03-26T08:03:24;94516.19;;;17.52;40.45
62697;BME280;48761;42.680;23.312;2023-03-26T08:06:18;94525.66;;;17.11;40.37
62697;BME280;48761;42.680;23.312;2023-03-26T08:08:48;94518.25;;;17.93;38.31
62697;BME280;48761;42.680;23.312;2023-03-26T08:11:45;94515.09;;;18.75;36.11
62697;BME280;48761;42.680;23.312;2023-03-26T08:14:24;94521.28;;;18.42;35.37
62697;BME280;48761;42.680;23.312;2023-03-26T08:22:22;94523.41;;;17.25;38.08
62697;BME280;48761;42.680;23.312;2023-03-26T08:28:02;94523.31;;;18.57;35.44
62697;BME280;48761;42.680;23.312;2023-03-26T08:30:33;94502.59;;;18.32;35.13
62697;BME280;48761;42.680;23.312;2023-03-26T08:33:25;94523.56;;;18.20;37.83
62697;BME280;48761;42.680;23.312;2023-03-26T08:35:49;94508.63;;;17.21;40.16
62697;BME280;48761;42.680;23.312;2023-03-26T08:38:17;94534.31;;;18.20;45.14
62697;BME280;48761;42.680;23.312;2023-03-26T08:52:14;94527.91;;;19.40;37.43
62697;BME280;48761;42.680;23.312;2023-03-26T08:58:20;94516.81;;;19.92;35.77
62697;BME280;48761;42.680;23.312;2023-03-26T09:09:33;94515.94;;;19.34;34.66
62697;BME280;48761;42.680;23.312;2023-03-26T09:30:55;94494.00;;;19.63;31.90
62697;BME280;48761;42.680;23.312;2023-03-26T09:36:53;94507.69;;;18.94;34.17
62697;BME280;48761;42.680;23.312;2023-03-26T09:42:22;94496.22;;;18.58;33.46
62697;BME280;48761;42.680;23.312;2023-03-26T09:45:07;94494.75;;;19.23;36.71
62697;BME280;48761;42.680;23.312;2023-03-26T10:07:30;94467.22;;;20.33;35.54
62697;BME280;48761;42.680;23.312;2023-03-26T10:12:54;94441.59;;;18.83;32.72
62697;BME280;48761;42.680;23.312;2023-03-26T10:21:00;94437.81;;;19.34;33.08
62697;BME280;48761;42.680;23.312;2023-03-26T10:26:53;94442.19;;;19.44;30.72
62697;BME280;48761;42.680;23.312;2023-03-26T10:33:18;94410.66;;;18.45;30.60
62697;BME280;48761;42.680;23.312;2023-03-26T10:39:06;94418.72;;;19.53;33.22
62697;BME280;48761;42.680;23.312;2023-03-26T10:53:02;94393.25;;;18.06;30.28
62697;BME280;48761;42.680;23.312;2023-03-26T10:55:40;94397.19;;;18.62;30.64
62697;BME280;48761;42.680;23.312;2023-03-26T10:58:22;94396.56;;;19.17;34.34
62697;BME280;48761;42.680;23.312;2023-03-26T11:01:23;94384.13;;;19.65;29.59
62697;BME280;48761;42.680;23.312;2023-03-26T11:03:58;94374.47;;;18.65;29.09
62697;BME280;48761;42.680;23.312;2023-03-26T11:20:06;94382.25;;;19.33;28.60
62697;BME280;48761;42.680;23.312;2023-03-26T11:26:15;94369.91;;;18.82;28.87
62697;BME280;48761;42.680;23.312;2023-03-26T11:33:51;94351.88;;;19.48;31.83
62697;BME280;48761;42.680;23.312;2023-03-26T11:36:24;94358.69;;;19.67;31.15
62697;BME280;48761;42.680;23.312;2023-03-26T11:38:54;94358.97;;;19.49;29.15
62697;BME280;48761;42.680;23.312;2023-03-26T11:41:25;94353.59;;;19.73;32.20
62697;BME280;48761;42.680;23.312;2023-03-26T11:44:02;94348.47;;;19.06;28.00
62697;BME280;48761;42.680;23.312;2023-03-26T11:46:29;94353.03;;;19.05;28.37
62697;BME280;48761;42.680;23.312;2023-03-26T11:49:02;94340.38;;;19.54;30.61
62697;BME280;48761;42.680;23.312;2023-03-26T11:51:34;94308.66;;;19.65;28.77
62697;BME280;48761;42.680;23.312;2023-03-26T11:54:01;94315.97;;;19.15;27.18
62697;BME280;48761;42.680;23.312;2023-03-26T11:59:07;94307.22;;;19.54;28.94
62697;BME280;48761;42.680;23.312;2023-03-26T12:01:48;94306.09;;;19.40;27.91
62697;BME280;48761;42.680;23.312;2023-03-26T12:04:16;94293.78;;;19.45;27.58
62697;BME280;48761;42.680;23.312;2023-03-26T12:09:54;94295.41;;;19.14;27.28
62697;BME280;48761;42.680;23.312;2023-03-26T12:12:24;94276.97;;;18.95;26.68
62697;BME280;48761;42.680;23.312;2023-03-26T12:14:50;94278.03;;;18.85;26.29
62697;BME280;48761;42.680;23.312;2023-03-26T12:19:51;94278.09;;;18.52;25.70
62697;BME280;48761;42.680;23.312;2023-03-26T12:22:37;94254.81;;;18.84;26.51
62697;BME280;48761;42.680;23.312;2023-03-26T12:25:19;94264.25;;;18.71;25.82
62697;BME280;48761;42.680;23.312;2023-03-26T12:27:49;94260.94;;;18.61;25.82
62697;BME280;48761;42.680;23.312;2023-03-26T12:30:22;94249.69;;;18.57;26.87
62697;BME280;48761;42.680;23.312;2023-03-26T12:32:49;94234.59;;;18.31;26.59
62697;BME280;48761;42.680;23.312;2023-03-26T12:35:18;94242.34;;;17.92;25.27
62697;BME280;48761;42.680;23.312;2023-03-26T12:37:47;94243.84;;;17.78;24.16
62697;BME280;48761;42.680;23.312;2023-03-26T12:40:34;94247.06;;;17.82;24.42
62697;BME280;48761;42.680;23.312;2023-03-26T12:43:18;94227.91;;;17.93;24.60
62697;BME280;48761;42.680;23.312;2023-03-26T12:45:47;94235.09;;;18.18;25.12
62697;BME280;48761;42.680;23.312;2023-03-26T12:48:16;94230.41;;;18.20;25.14
62697;BME280;48761;42.680;23.312;2023-03-26T13:04:19;94221.34;;;17.79;25.14
62697;BME280;48761;42.680;23.312;2023-03-26T13:06:53;94215.97;;;17.96;24.19
62697;BME280;48761;42.680;23.312;2023-03-26T13:09:36;94216.31;;;17.76;23.98
62697;BME280;48761;42.680;23.312;2023-03-26T13:18:04;94200.31;;;18.08;23.29
62697;BME280;48761;42.680;23.312;2023-03-26T13:33:52;94209.91;;;17.94;22.86
62697;BME280;48761;42.680;23.312;2023-03-26T13:36:30;94212.25;;;18.14;23.21
62697;BME280;48761;42.680;23.312;2023-03-26T13:39:19;94211.25;;;18.23;23.44
62697;BME280;48761;42.680;23.312;2023-03-26T13:45:09;94206.22;;;18.03;21.40
62697;BME280;48761;42.680;23.312;2023-03-26T13:47:42;94197.81;;;18.15;21.96
62697;BME280;48761;42.680;23.312;2023-03-26T13:52:53;94192.28;;;18.00;22.34
62697;BME280;48761;42.680;23.312;2023-03-26T13:55:41;94188.38;;;18.02;22.94
62697;BME280;48761;42.680;23.312;2023-03-26T13:58:13;94192.44;;;17.98;22.46
62697;BME280;48761;42.680;23.312;2023-03-26T14:00:56;94194.13;;;17.99;22.33
62697;BME280;48761;42.680;23.312;2023-03-26T14:03:32;94185.69;;;18.11;22.19
62697;BME280;48761;42.680;23.312;2023-03-26T14:08:46;94183.56;;;17.89;21.72
62697;BME280;48761;42.680;23.312;2023-03-26T14:11:34;94174.94;;;18.02;22.46
62697;BME280;48761;42.680;23.312;2023-03-26T14:14:09;94172.94;;;17.96;22.82
62697;BME280;48761;42.680;23.312;2023-03-26T14:16:43;94156.16;;;17.86;22.91
62697;BME280;48761;42.680;23.312;2023-03-26T14:21:53;94165.25;;;17.85;23.71
62697;BME280;48761;42.680;23.312;2023-03-26T14:24:30;94172.13;;;17.79;23.06
62697;BME280;48761;42.680;23.312;2023-03-26T14:29:53;94171.81;;;17.82;23.36
62697;BME280;48761;42.680;23.312;2023-03-26T14:35:31;94157.84;;;17.70;24.36
62697;BME280;48761;42.680;23.312;2023-03-26T14:40:46;94165.06;;;17.78;24.46
62697;BME280;48761;42.680;23.312;2023-03-26T14:53:32;94158.34;;;17.57;25.22
62697;BME280;48761;42.680;23.312;2023-03-26T14:56:41;94155.31;;;17.85;24.84
62697;BME280;48761;42.680;23.312;2023-03-26T15:05:20;94163.91;;;17.47;24.66
62697;BME280;48761;42.680;23.312;2023-03-26T15:36:31;94157.34;;;17.33;26.65
62697;BME280;48761;42.680;23.312;2023-03-26T15:42:30;94160.56;;;17.36;26.54
62697;BME280;48761;42.680;23.312;2023-03-26T15:50:52;94165.50;;;16.98;26.73
62697;BME280;48761;42.680;23.312;2023-03-26T16:01:47;94160.03;;;17.24;26.83
62697;BME280;48761;42.680;23.312;2023-03-26T16:04:36;94166.53;;;17.05;27.53
62697;BME280;48761;42.680;23.312;2023-03-26T16:10:19;94163.22;;;17.20;28.22
62697;BME280;48761;42.680;23.312;2023-03-26T16:18:31;94170.38;;;17.02;28.26
62697;BME280;48761;42.680;23.312;2023-03-26T16:24:18;94179.31;;;17.20;28.57
62697;BME280;48761;42.680;23.312;2023-03-26T16:29:22;94177.31;;;17.47;37.77
62697;BME280;48761;42.680;23.312;2023-03-26T16:34:44;94165.56;;;17.65;33.38
62697;BME280;48761;42.680;23.312;2023-03-26T16:43:09;94189.09;;;17.63;30.76
62697;BME280;48761;42.680;23.312;2023-03-26T16:53:38;94185.75;;;17.61;30.58
62697;BME280;48761;42.680;23.312;2023-03-26T16:56:16;94159.88;;;17.43;30.91
62697;BME280;48761;42.680;23.312;2023-03-26T16:58:53;94176.00;;;17.51;30.61
62697;BME280;48761;42.680;23.312;2023-03-26T17:01:28;94187.09;;;17.56;30.79
62697;BME280;48761;42.680;23.312;2023-03-26T17:04:05;94181.03;;;17.46;30.33
62697;BME280;48761;42.680;23.312;2023-03-26T17:09:36;94186.75;;;17.51;31.26
62697;BME280;48761;42.680;23.312;2023-03-26T17:20:01;94191.75;;;18.04;31.57
62697;BME280;48761;42.680;23.312;2023-03-26T17:33:26;94204.00;;;16.72;30.82
62697;BME280;48761;42.680;23.312;2023-03-26T17:41:02;94188.84;;;16.19;31.67
62697;BME280;48761;42.680;23.312;2023-03-26T17:43:47;94198.72;;;16.18;31.93
62697;BME280;48761;42.680;23.312;2023-03-26T17:49:15;94186.69;;;16.22;32.49
62697;BME280;48761;42.680;23.312;2023-03-26T17:54:30;94176.94;;;16.21;32.50
62697;BME280;48761;42.680;23.312;2023-03-26T17:57:02;94190.91;;;16.33;32.33
62697;BME280;48761;42.680;23.312;2023-03-26T17:59:30;94181.34;;;16.31;32.46
62697;BME280;48761;42.680;23.312;2023-03-26T18:02:03;94177.88;;;16.39;32.22
62697;BME280;48761;42.680;23.312;2023-03-26T18:04:35;94190.16;;;16.50;32.17
62697;BME280;48761;42.680;23.312;2023-03-26T18:12:39;94151.16;;;15.67;32.25
62697;BME280;48761;42.680;23.312;2023-03-26T18:18:22;94184.97;;;15.68;32.72
62697;BME280;48761;42.680;23.312;2023-03-26T18:20:53;94182.19;;;15.78;32.73
62697;BME280;48761;42.680;23.312;2023-03-26T18:26:08;94128.59;;;15.51;32.74
62697;BME280;48761;42.680;23.312;2023-03-26T18:28:43;94131.66;;;15.56;32.57
62697;BME280;48761;42.680;23.312;2023-03-26T18:31:19;94128.66;;;15.60;32.80
62697;BME280;48761;42.680;23.312;2023-03-26T18:33:47;94113.56;;;15.58;32.82
62697;BME280;48761;42.680;23.312;2023-03-26T18:36:16;94143.88;;;15.86;32.81
62697;BME280;48761;42.680;23.312;2023-03-26T18:38:44;94128.59;;;15.78;32.76
62697;BME280;48761;42.680;23.312;2023-03-26T18:41:34;94164.72;;;16.00;33.03
62697;BME280;48761;42.680;23.312;2023-03-26T18:44:18;94158.31;;;15.93;33.60
62697;BME280;48761;42.680;23.312;2023-03-26T18:46:44;94125.41;;;15.74;33.43
62697;BME280;48761;42.680;23.312;2023-03-26T18:49:14;94146.25;;;15.89;33.18
62697;BME280;48761;42.680;23.312;2023-03-26T18:51:44;94120.34;;;15.71;33.61
62697;BME280;48761;42.680;23.312;2023-03-26T18:54:42;94149.59;;;15.91;33.37
62697;BME280;48761;42.680;23.312;2023-03-26T18:57:24;94141.50;;;15.83;33.72
62697;BME280;48761;42.680;23.312;2023-03-26T18:59:52;94147.41;;;15.86;34.22
62697;BME280;48761;42.680;23.312;2023-03-26T19:02:19;94138.53;;;15.86;34.35
62697;BME280;48761;42.680;23.312;2023-03-26T19:04:46;94132.19;;;15.87;34.42
62697;BME280;48761;42.680;23.312;2023-03-26T19:07:15;94102.38;;;15.63;34.56
62697;BME280;48761;42.680;23.312;2023-03-26T19:09:42;94126.81;;;15.87;34.24
62697;BME280;48761;42.680;23.312;2023-03-26T19:12:15;94119.47;;;15.89;34.13
62697;BME280;48761;42.680;23.312;2023-03-26T19:15:09;94116.25;;;15.85;33.96
62697;BME280;48761;42.680;23.312;2023-03-26T19:17:42;94112.88;;;15.83;33.69
62697;BME280;48761;42.680;23.312;2023-03-26T19:20:19;94109.28;;;15.66;34.15
62697;BME280;48761;42.680;23.312;2023-03-26T19:22:46;94100.88;;;15.61;34.49
62697;BME280;48761;42.680;23.312;2023-03-26T19:25:20;94109.91;;;15.60;34.61
62697;BME280;48761;42.680;23.312;2023-03-26T19:27:47;94100.88;;;15.61;34.46
62697;BME280;48761;42.680;23.312;2023-03-26T19:30:23;94104.91;;;15.65;34.28